< < Back
Terminal Aerodrome Forecast


Current Version              Previous Versions:   1  2  3  4  5  6  7  8  9  

Terminal Aerodrome Forecast

710
FTUS42 KJAX 181100
TAFJAX
TAF
KJAX 181120Z 1812/1912 30004KT P6SM BKN200
     FM190000 00000KT P6SM FEW080 SCT250=



Latest METAR

078
SAUS80 KWBC 182300 RRA
MTRJAX
METAR KJAX 182256Z 26003KT 10SM SCT180 BKN250 12/09 A3009 RMK AO2 SLP188
T01170089


USA.gov is the U.S. government's official web portal to all federal, state and local government web resources and services.